sensor_id;sensor_type;location;lat;lon;timestamp;P1;durP1;ratioP1;P2;durP2;ratioP2
59109;SDS011;44895;47.438;18.978;2023-02-15T00:01:04;24.50;;;13.32;;
59109;SDS011;44895;47.438;18.978;2023-02-15T00:04:15;25.13;;;12.25;;
59109;SDS011;44895;47.438;18.978;2023-02-15T00:07:20;25.17;;;15.25;;
59109;SDS011;44895;47.438;18.978;2023-02-15T00:10:24;23.85;;;13.18;;
59109;SDS011;44895;47.438;18.978;2023-02-15T00:13:28;27.23;;;14.40;;
59109;SDS011;44895;47.438;18.978;2023-02-15T00:16:32;21.58;;;12.77;;
59109;SDS011;44895;47.438;18.978;2023-02-15T00:19:36;24.63;;;13.50;;
59109;SDS011;44895;47.438;18.978;2023-02-15T00:22:40;28.33;;;13.00;;
59109;SDS011;44895;47.438;18.978;2023-02-15T00:25:43;23.80;;;14.57;;
59109;SDS011;44895;47.438;18.978;2023-02-15T00:28:47;22.23;;;13.50;;
59109;SDS011;44895;47.438;18.978;2023-02-15T00:31:50;27.05;;;14.18;;
59109;SDS011;44895;47.438;18.978;2023-02-15T00:34:55;21.90;;;13.70;;
59109;SDS011;44895;47.438;18.978;2023-02-15T00:38:00;23.75;;;13.55;;
59109;SDS011;44895;47.438;18.978;2023-02-15T00:41:05;23.65;;;13.32;;
59109;SDS011;44895;47.438;18.978;2023-02-15T00:44:10;23.95;;;12.73;;
59109;SDS011;44895;47.438;18.978;2023-02-15T00:47:14;24.45;;;12.13;;
59109;SDS011;44895;47.438;18.978;2023-02-15T00:50:17;24.50;;;12.80;;
59109;SDS011;44895;47.438;18.978;2023-02-15T00:53:25;24.77;;;13.50;;
59109;SDS011;44895;47.438;18.978;2023-02-15T00:56:29;27.25;;;13.43;;
59109;SDS011;44895;47.438;18.978;2023-02-15T00:59:33;22.23;;;12.43;;
59109;SDS011;44895;47.438;18.978;2023-02-15T01:02:37;27.80;;;13.77;;
59109;SDS011;44895;47.438;18.978;2023-02-15T01:05:41;25.88;;;13.95;;
59109;SDS011;44895;47.438;18.978;2023-02-15T01:08:45;23.27;;;12.80;;
59109;SDS011;44895;47.438;18.978;2023-02-15T01:11:49;22.75;;;13.93;;
59109;SDS011;44895;47.438;18.978;2023-02-15T01:14:53;22.83;;;12.70;;
59109;SDS011;44895;47.438;18.978;2023-02-15T01:17:56;20.10;;;11.65;;
59109;SDS011;44895;47.438;18.978;2023-02-15T01:21:08;23.83;;;12.57;;
59109;SDS011;44895;47.438;18.978;2023-02-15T01:24:13;26.38;;;14.77;;
59109;SDS011;44895;47.438;18.978;2023-02-15T01:27:17;21.33;;;12.13;;
59109;SDS011;44895;47.438;18.978;2023-02-15T01:30:21;22.50;;;11.23;;
59109;SDS011;44895;47.438;18.978;2023-02-15T01:33:25;25.10;;;13.18;;
59109;SDS011;44895;47.438;18.978;2023-02-15T01:36:29;19.77;;;11.38;;
59109;SDS011;44895;47.438;18.978;2023-02-15T01:39:33;22.88;;;12.65;;
59109;SDS011;44895;47.438;18.978;2023-02-15T01:42:37;24.60;;;12.88;;
59109;SDS011;44895;47.438;18.978;2023-02-15T01:45:41;25.13;;;13.05;;
59109;SDS011;44895;47.438;18.978;2023-02-15T01:48:48;23.55;;;12.85;;
59109;SDS011;44895;47.438;18.978;2023-02-15T01:55:01;20.27;;;12.10;;
59109;SDS011;44895;47.438;18.978;2023-02-15T01:58:06;20.83;;;11.80;;
59109;SDS011;44895;47.438;18.978;2023-02-15T02:01:11;19.58;;;11.13;;
59109;SDS011;44895;47.438;18.978;2023-02-15T02:07:59;24.05;;;13.07;;
59109;SDS011;44895;47.438;18.978;2023-02-15T02:11:11;26.77;;;15.30;;
59109;SDS011;44895;47.438;18.978;2023-02-15T02:14:15;22.25;;;12.98;;
59109;SDS011;44895;47.438;18.978;2023-02-15T02:23:51;24.60;;;12.55;;
59109;SDS011;44895;47.438;18.978;2023-02-15T02:27:18;20.10;;;10.90;;
59109;SDS011;44895;47.438;18.978;2023-02-15T02:37:12;23.33;;;11.82;;
59109;SDS011;44895;47.438;18.978;2023-02-15T02:40:39;22.23;;;11.75;;
59109;SDS011;44895;47.438;18.978;2023-02-15T02:43:48;29.25;;;12.07;;
59109;SDS011;44895;47.438;18.978;2023-02-15T02:46:59;23.70;;;12.85;;
59109;SDS011;44895;47.438;18.978;2023-02-15T02:50:17;25.77;;;11.88;;
59109;SDS011;44895;47.438;18.978;2023-02-15T02:53:25;22.30;;;12.75;;
59109;SDS011;44895;47.438;18.978;2023-02-15T02:56:33;23.63;;;11.77;;
59109;SDS011;44895;47.438;18.978;2023-02-15T02:59:41;22.55;;;13.05;;
59109;SDS011;44895;47.438;18.978;2023-02-15T03:02:51;24.73;;;14.70;;
59109;SDS011;44895;47.438;18.978;2023-02-15T03:06:03;23.92;;;12.23;;
59109;SDS011;44895;47.438;18.978;2023-02-15T03:09:14;26.58;;;14.95;;
59109;SDS011;44895;47.438;18.978;2023-02-15T03:12:24;23.88;;;13.60;;
59109;SDS011;44895;47.438;18.978;2023-02-15T03:15:39;25.65;;;13.45;;
59109;SDS011;44895;47.438;18.978;2023-02-15T03:19:08;26.17;;;16.05;;
59109;SDS011;44895;47.438;18.978;2023-02-15T03:22:17;24.95;;;14.57;;
59109;SDS011;44895;47.438;18.978;2023-02-15T03:25:30;25.58;;;12.80;;
59109;SDS011;44895;47.438;18.978;2023-02-15T03:28:38;24.63;;;14.40;;
59109;SDS011;44895;47.438;18.978;2023-02-15T03:31:49;22.75;;;13.10;;
59109;SDS011;44895;47.438;18.978;2023-02-15T03:34:57;21.92;;;12.55;;
59109;SDS011;44895;47.438;18.978;2023-02-15T03:38:01;28.25;;;15.75;;
59109;SDS011;44895;47.438;18.978;2023-02-15T03:41:09;23.23;;;13.95;;
59109;SDS011;44895;47.438;18.978;2023-02-15T03:44:21;24.52;;;13.65;;
59109;SDS011;44895;47.438;18.978;2023-02-15T03:47:31;26.45;;;14.60;;
59109;SDS011;44895;47.438;18.978;2023-02-15T03:50:38;25.88;;;12.98;;
59109;SDS011;44895;47.438;18.978;2023-02-15T03:54:03;22.60;;;13.30;;
59109;SDS011;44895;47.438;18.978;2023-02-15T03:57:19;25.27;;;14.00;;
59109;SDS011;44895;47.438;18.978;2023-02-15T04:00:45;23.35;;;13.38;;
59109;SDS011;44895;47.438;18.978;2023-02-15T04:04:17;23.85;;;13.27;;
59109;SDS011;44895;47.438;18.978;2023-02-15T04:07:23;22.27;;;12.63;;
59109;SDS011;44895;47.438;18.978;2023-02-15T04:10:27;23.40;;;12.95;;
59109;SDS011;44895;47.438;18.978;2023-02-15T04:13:49;21.98;;;14.30;;
59109;SDS011;44895;47.438;18.978;2023-02-15T04:16:59;24.02;;;14.75;;
59109;SDS011;44895;47.438;18.978;2023-02-15T04:20:03;25.25;;;14.10;;
59109;SDS011;44895;47.438;18.978;2023-02-15T04:23:25;21.15;;;12.15;;
59109;SDS011;44895;47.438;18.978;2023-02-15T04:26:48;23.17;;;12.52;;
59109;SDS011;44895;47.438;18.978;2023-02-15T04:29:52;27.88;;;16.05;;
59109;SDS011;44895;47.438;18.978;2023-02-15T04:32:56;28.45;;;13.70;;
59109;SDS011;44895;47.438;18.978;2023-02-15T04:36:00;26.67;;;14.10;;
59109;SDS011;44895;47.438;18.978;2023-02-15T04:39:03;23.27;;;14.40;;
59109;SDS011;44895;47.438;18.978;2023-02-15T04:42:08;28.70;;;14.50;;
59109;SDS011;44895;47.438;18.978;2023-02-15T04:45:12;25.13;;;14.20;;
59109;SDS011;44895;47.438;18.978;2023-02-15T04:48:16;23.45;;;14.75;;
59109;SDS011;44895;47.438;18.978;2023-02-15T04:51:21;26.80;;;15.13;;
59109;SDS011;44895;47.438;18.978;2023-02-15T04:54:25;25.52;;;16.23;;
59109;SDS011;44895;47.438;18.978;2023-02-15T04:57:28;25.85;;;15.02;;
59109;SDS011;44895;47.438;18.978;2023-02-15T05:00:32;33.65;;;15.70;;
59109;SDS011;44895;47.438;18.978;2023-02-15T05:03:36;27.58;;;16.33;;
59109;SDS011;44895;47.438;18.978;2023-02-15T05:06:40;25.42;;;15.18;;
59109;SDS011;44895;47.438;18.978;2023-02-15T05:09:44;31.60;;;16.25;;
59109;SDS011;44895;47.438;18.978;2023-02-15T05:12:47;28.02;;;17.02;;
59109;SDS011;44895;47.438;18.978;2023-02-15T05:15:52;26.02;;;14.10;;
59109;SDS011;44895;47.438;18.978;2023-02-15T05:18:56;30.83;;;16.33;;
59109;SDS011;44895;47.438;18.978;2023-02-15T05:21:59;27.80;;;17.30;;
59109;SDS011;44895;47.438;18.978;2023-02-15T05:25:03;28.75;;;15.32;;
59109;SDS011;44895;47.438;18.978;2023-02-15T05:28:26;24.48;;;15.85;;
59109;SDS011;44895;47.438;18.978;2023-02-15T05:31:31;31.15;;;15.98;;
59109;SDS011;44895;47.438;18.978;2023-02-15T05:34:35;28.80;;;16.33;;
59109;SDS011;44895;47.438;18.978;2023-02-15T05:37:38;33.95;;;20.67;;
59109;SDS011;44895;47.438;18.978;2023-02-15T05:40:42;37.10;;;19.45;;
59109;SDS011;44895;47.438;18.978;2023-02-15T05:43:46;27.27;;;15.65;;
59109;SDS011;44895;47.438;18.978;2023-02-15T05:46:50;28.73;;;17.92;;
59109;SDS011;44895;47.438;18.978;2023-02-15T05:49:54;30.80;;;17.55;;
59109;SDS011;44895;47.438;18.978;2023-02-15T05:52:58;31.45;;;16.65;;
59109;SDS011;44895;47.438;18.978;2023-02-15T05:56:02;28.48;;;16.88;;
59109;SDS011;44895;47.438;18.978;2023-02-15T05:59:07;22.90;;;13.75;;
59109;SDS011;44895;47.438;18.978;2023-02-15T06:02:11;28.45;;;17.13;;
59109;SDS011;44895;47.438;18.978;2023-02-15T06:05:16;27.42;;;15.50;;
59109;SDS011;44895;47.438;18.978;2023-02-15T06:08:19;30.77;;;17.45;;
59109;SDS011;44895;47.438;18.978;2023-02-15T06:11:23;30.10;;;16.75;;
59109;SDS011;44895;47.438;18.978;2023-02-15T06:14:27;32.50;;;17.33;;
59109;SDS011;44895;47.438;18.978;2023-02-15T06:17:31;29.33;;;16.77;;
59109;SDS011;44895;47.438;18.978;2023-02-15T06:20:35;36.08;;;15.30;;
59109;SDS011;44895;47.438;18.978;2023-02-15T06:23:39;30.52;;;16.50;;
59109;SDS011;44895;47.438;18.978;2023-02-15T06:26:42;23.80;;;14.65;;
59109;SDS011;44895;47.438;18.978;2023-02-15T06:29:46;25.13;;;13.95;;
59109;SDS011;44895;47.438;18.978;2023-02-15T06:32:50;33.53;;;20.02;;
59109;SDS011;44895;47.438;18.978;2023-02-15T06:35:54;35.35;;;17.92;;
59109;SDS011;44895;47.438;18.978;2023-02-15T06:38:58;29.60;;;16.45;;
59109;SDS011;44895;47.438;18.978;2023-02-15T06:42:01;34.78;;;17.55;;
59109;SDS011;44895;47.438;18.978;2023-02-15T06:45:05;29.65;;;17.30;;
59109;SDS011;44895;47.438;18.978;2023-02-15T06:48:09;31.25;;;19.55;;
59109;SDS011;44895;47.438;18.978;2023-02-15T06:51:14;29.27;;;16.92;;
59109;SDS011;44895;47.438;18.978;2023-02-15T06:54:18;29.52;;;19.10;;
59109;SDS011;44895;47.438;18.978;2023-02-15T06:57:22;35.95;;;19.85;;
59109;SDS011;44895;47.438;18.978;2023-02-15T07:00:26;33.45;;;20.10;;
59109;SDS011;44895;47.438;18.978;2023-02-15T07:03:29;30.65;;;19.20;;
59109;SDS011;44895;47.438;18.978;2023-02-15T07:06:34;32.80;;;19.45;;
59109;SDS011;44895;47.438;18.978;2023-02-15T07:09:38;33.78;;;19.23;;
59109;SDS011;44895;47.438;18.978;2023-02-15T07:12:42;34.15;;;20.60;;
59109;SDS011;44895;47.438;18.978;2023-02-15T07:15:46;31.25;;;17.77;;
59109;SDS011;44895;47.438;18.978;2023-02-15T07:18:50;33.60;;;19.20;;
59109;SDS011;44895;47.438;18.978;2023-02-15T07:21:54;33.20;;;19.85;;
59109;SDS011;44895;47.438;18.978;2023-02-15T07:24:58;33.10;;;20.42;;
59109;SDS011;44895;47.438;18.978;2023-02-15T07:28:02;36.28;;;19.55;;
59109;SDS011;44895;47.438;18.978;2023-02-15T07:31:07;37.65;;;24.27;;
59109;SDS011;44895;47.438;18.978;2023-02-15T07:34:11;34.60;;;21.60;;
59109;SDS011;44895;47.438;18.978;2023-02-15T07:37:15;37.67;;;23.63;;
59109;SDS011;44895;47.438;18.978;2023-02-15T07:40:19;34.10;;;21.25;;
59109;SDS011;44895;47.438;18.978;2023-02-15T07:43:22;36.05;;;20.70;;
59109;SDS011;44895;47.438;18.978;2023-02-15T07:46:26;36.03;;;22.30;;
59109;SDS011;44895;47.438;18.978;2023-02-15T07:49:31;30.60;;;20.23;;
59109;SDS011;44895;47.438;18.978;2023-02-15T07:52:34;33.33;;;20.45;;
59109;SDS011;44895;47.438;18.978;2023-02-15T07:55:38;32.58;;;21.73;;
59109;SDS011;44895;47.438;18.978;2023-02-15T07:58:42;33.63;;;21.98;;
59109;SDS011;44895;47.438;18.978;2023-02-15T08:01:55;29.42;;;20.33;;
59109;SDS011;44895;47.438;18.978;2023-02-15T08:04:59;31.80;;;23.38;;
59109;SDS011;44895;47.438;18.978;2023-02-15T08:08:03;41.58;;;24.08;;
59109;SDS011;44895;47.438;18.978;2023-02-15T08:14:28;34.83;;;23.70;;
59109;SDS011;44895;47.438;18.978;2023-02-15T08:17:35;31.17;;;19.85;;
59109;SDS011;44895;47.438;18.978;2023-02-15T08:20:39;30.08;;;19.55;;
59109;SDS011;44895;47.438;18.978;2023-02-15T08:23:43;31.65;;;19.42;;
59109;SDS011;44895;47.438;18.978;2023-02-15T08:26:47;32.03;;;21.70;;
59109;SDS011;44895;47.438;18.978;2023-02-15T08:29:51;35.63;;;22.38;;
59109;SDS011;44895;47.438;18.978;2023-02-15T08:32:55;32.67;;;20.67;;
59109;SDS011;44895;47.438;18.978;2023-02-15T08:36:03;32.17;;;22.58;;
59109;SDS011;44895;47.438;18.978;2023-02-15T08:39:10;32.65;;;21.05;;
59109;SDS011;44895;47.438;18.978;2023-02-15T08:42:15;34.25;;;20.63;;
59109;SDS011;44895;47.438;18.978;2023-02-15T08:45:19;33.45;;;20.00;;
59109;SDS011;44895;47.438;18.978;2023-02-15T08:48:23;35.03;;;20.58;;
59109;SDS011;44895;47.438;18.978;2023-02-15T08:51:28;30.08;;;20.73;;
59109;SDS011;44895;47.438;18.978;2023-02-15T08:54:36;34.58;;;20.17;;
59109;SDS011;44895;47.438;18.978;2023-02-15T08:57:40;40.35;;;21.50;;
59109;SDS011;44895;47.438;18.978;2023-02-15T09:03:57;32.63;;;20.50;;
59109;SDS011;44895;47.438;18.978;2023-02-15T09:07:07;31.02;;;20.35;;
59109;SDS011;44895;47.438;18.978;2023-02-15T09:10:11;30.38;;;20.85;;
59109;SDS011;44895;47.438;18.978;2023-02-15T09:13:15;31.00;;;19.80;;
59109;SDS011;44895;47.438;18.978;2023-02-15T09:16:19;30.48;;;20.50;;
59109;SDS011;44895;47.438;18.978;2023-02-15T09:19:24;31.70;;;21.02;;
59109;SDS011;44895;47.438;18.978;2023-02-15T09:22:28;31.70;;;21.17;;
59109;SDS011;44895;47.438;18.978;2023-02-15T09:25:34;29.67;;;20.05;;
59109;SDS011;44895;47.438;18.978;2023-02-15T09:28:38;37.53;;;25.17;;
59109;SDS011;44895;47.438;18.978;2023-02-15T09:31:43;31.50;;;21.95;;
59109;SDS011;44895;47.438;18.978;2023-02-15T09:34:49;30.63;;;21.90;;
59109;SDS011;44895;47.438;18.978;2023-02-15T09:37:53;31.98;;;23.25;;
59109;SDS011;44895;47.438;18.978;2023-02-15T09:41:02;33.47;;;23.30;;
59109;SDS011;44895;47.438;18.978;2023-02-15T09:47:45;31.95;;;23.27;;
59109;SDS011;44895;47.438;18.978;2023-02-15T10:11:17;29.50;;;20.15;;
59109;SDS011;44895;47.438;18.978;2023-02-15T10:18:22;35.83;;;20.58;;
59109;SDS011;44895;47.438;18.978;2023-02-15T10:21:52;39.13;;;21.60;;
59109;SDS011;44895;47.438;18.978;2023-02-15T10:31:51;32.25;;;22.05;;
59109;SDS011;44895;47.438;18.978;2023-02-15T10:56:44;35.50;;;22.38;;
59109;SDS011;44895;47.438;18.978;2023-02-15T11:00:19;33.08;;;22.65;;
59109;SDS011;44895;47.438;18.978;2023-02-15T11:06:58;37.47;;;22.85;;
59109;SDS011;44895;47.438;18.978;2023-02-15T11:10:14;31.38;;;21.75;;
59109;SDS011;44895;47.438;18.978;2023-02-15T11:16:36;28.55;;;17.08;;
59109;SDS011;44895;47.438;18.978;2023-02-15T11:23:09;27.35;;;17.42;;
59109;SDS011;44895;47.438;18.978;2023-02-15T11:26:25;32.80;;;19.80;;
59109;SDS011;44895;47.438;18.978;2023-02-15T11:29:38;32.85;;;20.50;;
59109;SDS011;44895;47.438;18.978;2023-02-15T11:32:51;30.48;;;19.55;;
59109;SDS011;44895;47.438;18.978;2023-02-15T11:36:21;34.33;;;22.63;;
59109;SDS011;44895;47.438;18.978;2023-02-15T11:39:25;30.08;;;21.10;;
59109;SDS011;44895;47.438;18.978;2023-02-15T11:42:31;31.05;;;20.60;;
59109;SDS011;44895;47.438;18.978;2023-02-15T11:45:36;29.08;;;18.63;;
59109;SDS011;44895;47.438;18.978;2023-02-15T11:48:41;28.90;;;19.55;;
59109;SDS011;44895;47.438;18.978;2023-02-15T11:51:45;35.17;;;21.80;;
59109;SDS011;44895;47.438;18.978;2023-02-15T11:54:49;25.95;;;17.50;;
59109;SDS011;44895;47.438;18.978;2023-02-15T11:58:03;25.63;;;15.27;;
59109;SDS011;44895;47.438;18.978;2023-02-15T12:04:33;22.75;;;14.52;;
59109;SDS011;44895;47.438;18.978;2023-02-15T12:07:46;26.40;;;14.90;;
59109;SDS011;44895;47.438;18.978;2023-02-15T12:14:16;26.45;;;15.07;;
59109;SDS011;44895;47.438;18.978;2023-02-15T12:17:23;29.45;;;16.55;;
59109;SDS011;44895;47.438;18.978;2023-02-15T12:20:33;26.23;;;16.25;;
59109;SDS011;44895;47.438;18.978;2023-02-15T12:23:57;22.58;;;13.85;;
59109;SDS011;44895;47.438;18.978;2023-02-15T12:27:17;22.83;;;14.65;;
59109;SDS011;44895;47.438;18.978;2023-02-15T12:30:36;23.35;;;15.63;;
59109;SDS011;44895;47.438;18.978;2023-02-15T12:33:41;20.65;;;13.88;;
59109;SDS011;44895;47.438;18.978;2023-02-15T12:36:52;24.10;;;13.93;;
59109;SDS011;44895;47.438;18.978;2023-02-15T12:40:18;24.67;;;15.63;;
59109;SDS011;44895;47.438;18.978;2023-02-15T12:43:34;26.90;;;16.63;;
59109;SDS011;44895;47.438;18.978;2023-02-15T12:46:39;22.92;;;14.98;;
59109;SDS011;44895;47.438;18.978;2023-02-15T12:49:43;26.15;;;16.25;;
59109;SDS011;44895;47.438;18.978;2023-02-15T12:52:49;24.98;;;16.35;;
59109;SDS011;44895;47.438;18.978;2023-02-15T12:55:59;28.70;;;14.95;;
59109;SDS011;44895;47.438;18.978;2023-02-15T12:59:04;27.23;;;14.70;;
59109;SDS011;44895;47.438;18.978;2023-02-15T13:02:12;26.95;;;14.75;;
59109;SDS011;44895;47.438;18.978;2023-02-15T13:05:44;21.20;;;13.68;;
59109;SDS011;44895;47.438;18.978;2023-02-15T13:09:14;29.05;;;16.33;;
59109;SDS011;44895;47.438;18.978;2023-02-15T13:12:24;25.50;;;14.95;;
59109;SDS011;44895;47.438;18.978;2023-02-15T13:15:40;24.77;;;15.07;;
59109;SDS011;44895;47.438;18.978;2023-02-15T13:18:47;23.55;;;14.43;;
59109;SDS011;44895;47.438;18.978;2023-02-15T13:21:55;22.80;;;15.48;;
59109;SDS011;44895;47.438;18.978;2023-02-15T13:25:04;22.67;;;13.48;;
59109;SDS011;44895;47.438;18.978;2023-02-15T13:28:16;23.73;;;14.95;;
59109;SDS011;44895;47.438;18.978;2023-02-15T13:31:26;22.42;;;15.25;;
59109;SDS011;44895;47.438;18.978;2023-02-15T13:34:32;30.05;;;17.10;;
59109;SDS011;44895;47.438;18.978;2023-02-15T13:40:57;22.25;;;14.00;;
59109;SDS011;44895;47.438;18.978;2023-02-15T13:44:10;24.52;;;14.85;;
59109;SDS011;44895;47.438;18.978;2023-02-15T13:47:54;21.17;;;14.00;;
59109;SDS011;44895;47.438;18.978;2023-02-15T13:58:59;23.50;;;14.45;;
59109;SDS011;44895;47.438;18.978;2023-02-15T14:05:57;21.60;;;13.52;;
59109;SDS011;44895;47.438;18.978;2023-02-15T14:12:26;22.17;;;16.67;;
59109;SDS011;44895;47.438;18.978;2023-02-15T14:15:47;28.58;;;17.92;;
59109;SDS011;44895;47.438;18.978;2023-02-15T14:22:42;20.38;;;13.23;;
59109;SDS011;44895;47.438;18.978;2023-02-15T14:25:52;24.85;;;15.52;;
59109;SDS011;44895;47.438;18.978;2023-02-15T14:32:29;30.13;;;15.95;;
59109;SDS011;44895;47.438;18.978;2023-02-15T14:35:56;27.08;;;16.38;;
59109;SDS011;44895;47.438;18.978;2023-02-15T14:39:08;27.75;;;17.17;;
59109;SDS011;44895;47.438;18.978;2023-02-15T14:49:30;28.48;;;18.60;;
59109;SDS011;44895;47.438;18.978;2023-02-15T14:52:49;25.33;;;16.35;;
59109;SDS011;44895;47.438;18.978;2023-02-15T14:56:20;27.35;;;17.55;;
59109;SDS011;44895;47.438;18.978;2023-02-15T14:59:24;29.80;;;16.58;;
59109;SDS011;44895;47.438;18.978;2023-02-15T15:02:29;27.08;;;17.17;;
59109;SDS011;44895;47.438;18.978;2023-02-15T15:05:51;30.60;;;16.85;;
59109;SDS011;44895;47.438;18.978;2023-02-15T15:09:10;26.77;;;17.30;;
59109;SDS011;44895;47.438;18.978;2023-02-15T15:15:44;29.42;;;16.35;;
59109;SDS011;44895;47.438;18.978;2023-02-15T15:18:49;30.38;;;18.92;;
59109;SDS011;44895;47.438;18.978;2023-02-15T15:21:54;28.17;;;17.27;;
59109;SDS011;44895;47.438;18.978;2023-02-15T15:25:03;29.00;;;15.52;;
59109;SDS011;44895;47.438;18.978;2023-02-15T15:31:41;30.52;;;16.92;;
59109;SDS011;44895;47.438;18.978;2023-02-15T15:49:06;27.40;;;15.85;;
59109;SDS011;44895;47.438;18.978;2023-02-15T15:52:14;24.58;;;15.05;;
59109;SDS011;44895;47.438;18.978;2023-02-15T15:55:21;24.42;;;15.82;;
59109;SDS011;44895;47.438;18.978;2023-02-15T15:58:27;25.35;;;14.20;;
59109;SDS011;44895;47.438;18.978;2023-02-15T16:01:43;28.10;;;16.63;;
59109;SDS011;44895;47.438;18.978;2023-02-15T16:04:49;26.23;;;15.15;;
59109;SDS011;44895;47.438;18.978;2023-02-15T16:07:52;29.20;;;16.90;;
59109;SDS011;44895;47.438;18.978;2023-02-15T16:10:57;28.38;;;17.27;;
59109;SDS011;44895;47.438;18.978;2023-02-15T16:14:03;30.10;;;18.27;;
59109;SDS011;44895;47.438;18.978;2023-02-15T16:17:08;26.05;;;15.20;;
59109;SDS011;44895;47.438;18.978;2023-02-15T16:33:21;27.35;;;16.38;;
59109;SDS011;44895;47.438;18.978;2023-02-15T16:36:26;28.77;;;18.52;;
59109;SDS011;44895;47.438;18.978;2023-02-15T16:39:32;36.67;;;20.40;;
59109;SDS011;44895;47.438;18.978;2023-02-15T16:42:44;43.72;;;22.95;;
59109;SDS011;44895;47.438;18.978;2023-02-15T16:45:49;36.08;;;21.23;;
59109;SDS011;44895;47.438;18.978;2023-02-15T16:48:56;31.02;;;21.70;;
59109;SDS011;44895;47.438;18.978;2023-02-15T16:52:10;35.85;;;20.60;;
59109;SDS011;44895;47.438;18.978;2023-02-15T16:55:26;31.60;;;19.30;;
59109;SDS011;44895;47.438;18.978;2023-02-15T16:58:43;28.73;;;16.88;;
59109;SDS011;44895;47.438;18.978;2023-02-15T17:01:52;38.38;;;17.45;;
59109;SDS011;44895;47.438;18.978;2023-02-15T17:08:26;33.33;;;19.55;;
59109;SDS011;44895;47.438;18.978;2023-02-15T17:11:43;32.40;;;20.88;;
59109;SDS011;44895;47.438;18.978;2023-02-15T17:14:47;38.63;;;19.67;;
59109;SDS011;44895;47.438;18.978;2023-02-15T17:18:00;35.22;;;22.48;;
59109;SDS011;44895;47.438;18.978;2023-02-15T17:21:16;38.65;;;20.35;;
59109;SDS011;44895;47.438;18.978;2023-02-15T17:27:44;43.40;;;20.02;;
59109;SDS011;44895;47.438;18.978;2023-02-15T17:30:58;44.33;;;24.55;;
59109;SDS011;44895;47.438;18.978;2023-02-15T17:34:03;40.88;;;23.98;;
59109;SDS011;44895;47.438;18.978;2023-02-15T17:37:10;35.45;;;21.23;;
59109;SDS011;44895;47.438;18.978;2023-02-15T17:40:18;43.72;;;26.85;;
59109;SDS011;44895;47.438;18.978;2023-02-15T17:43:26;41.15;;;23.45;;
59109;SDS011;44895;47.438;18.978;2023-02-15T17:46:34;39.63;;;23.80;;
59109;SDS011;44895;47.438;18.978;2023-02-15T17:49:40;42.25;;;25.40;;
59109;SDS011;44895;47.438;18.978;2023-02-15T17:52:44;43.22;;;24.55;;
59109;SDS011;44895;47.438;18.978;2023-02-15T17:55:49;40.63;;;25.67;;
59109;SDS011;44895;47.438;18.978;2023-02-15T17:58:54;38.25;;;26.60;;
59109;SDS011;44895;47.438;18.978;2023-02-15T18:01:58;44.45;;;25.25;;
59109;SDS011;44895;47.438;18.978;2023-02-15T18:05:20;41.42;;;26.95;;
59109;SDS011;44895;47.438;18.978;2023-02-15T18:08:43;41.55;;;26.10;;
59109;SDS011;44895;47.438;18.978;2023-02-15T18:12:40;39.72;;;24.13;;
59109;SDS011;44895;47.438;18.978;2023-02-15T18:15:39;50.90;;;28.10;;
59109;SDS011;44895;47.438;18.978;2023-02-15T18:18:45;46.08;;;26.73;;
59109;SDS011;44895;47.438;18.978;2023-02-15T18:21:51;62.45;;;32.08;;
59109;SDS011;44895;47.438;18.978;2023-02-15T18:24:56;66.70;;;32.83;;
59109;SDS011;44895;47.438;18.978;2023-02-15T18:28:01;54.67;;;31.90;;
59109;SDS011;44895;47.438;18.978;2023-02-15T18:31:07;56.33;;;29.08;;
59109;SDS011;44895;47.438;18.978;2023-02-15T18:34:19;52.20;;;30.48;;
59109;SDS011;44895;47.438;18.978;2023-02-15T18:37:33;45.42;;;26.90;;
59109;SDS011;44895;47.438;18.978;2023-02-15T18:40:40;46.78;;;27.45;;
59109;SDS011;44895;47.438;18.978;2023-02-15T18:43:46;43.97;;;26.65;;
59109;SDS011;44895;47.438;18.978;2023-02-15T18:46:52;43.97;;;24.70;;
59109;SDS011;44895;47.438;18.978;2023-02-15T18:49:57;47.50;;;24.77;;
59109;SDS011;44895;47.438;18.978;2023-02-15T18:53:05;45.97;;;27.08;;
59109;SDS011;44895;47.438;18.978;2023-02-15T18:56:15;41.72;;;24.20;;
59109;SDS011;44895;47.438;18.978;2023-02-15T18:59:21;36.40;;;21.77;;
59109;SDS011;44895;47.438;18.978;2023-02-15T19:02:27;39.55;;;25.20;;
59109;SDS011;44895;47.438;18.978;2023-02-15T19:05:32;35.63;;;22.73;;
59109;SDS011;44895;47.438;18.978;2023-02-15T19:08:36;38.63;;;21.20;;
59109;SDS011;44895;47.438;18.978;2023-02-15T19:11:42;39.55;;;23.13;;
59109;SDS011;44895;47.438;18.978;2023-02-15T19:14:53;39.45;;;22.00;;
59109;SDS011;44895;47.438;18.978;2023-02-15T19:17:59;37.45;;;21.67;;
59109;SDS011;44895;47.438;18.978;2023-02-15T19:21:03;40.25;;;23.30;;
59109;SDS011;44895;47.438;18.978;2023-02-15T19:24:18;38.58;;;22.45;;
59109;SDS011;44895;47.438;18.978;2023-02-15T19:30:40;34.83;;;20.73;;
59109;SDS011;44895;47.438;18.978;2023-02-15T19:33:47;34.22;;;20.65;;
59109;SDS011;44895;47.438;18.978;2023-02-15T19:36:56;35.15;;;18.90;;
59109;SDS011;44895;47.438;18.978;2023-02-15T19:40:01;41.30;;;24.50;;
59109;SDS011;44895;47.438;18.978;2023-02-15T19:43:25;39.22;;;23.70;;
59109;SDS011;44895;47.438;18.978;2023-02-15T19:46:30;36.33;;;22.90;;
59109;SDS011;44895;47.438;18.978;2023-02-15T19:49:44;42.00;;;21.05;;
59109;SDS011;44895;47.438;18.978;2023-02-15T19:52:48;40.92;;;24.00;;
59109;SDS011;44895;47.438;18.978;2023-02-15T19:55:53;43.35;;;27.17;;
59109;SDS011;44895;47.438;18.978;2023-02-15T19:58:58;40.03;;;24.92;;
59109;SDS011;44895;47.438;18.978;2023-02-15T20:02:03;46.38;;;24.25;;
59109;SDS011;44895;47.438;18.978;2023-02-15T20:05:11;42.42;;;23.90;;
59109;SDS011;44895;47.438;18.978;2023-02-15T20:08:17;43.88;;;27.02;;
59109;SDS011;44895;47.438;18.978;2023-02-15T20:11:25;80.03;;;38.53;;
59109;SDS011;44895;47.438;18.978;2023-02-15T20:14:30;115.85;;;56.65;;
59109;SDS011;44895;47.438;18.978;2023-02-15T20:17:34;160.10;;;81.00;;
59109;SDS011;44895;47.438;18.978;2023-02-15T20:24:05;190.63;;;102.43;;
59109;SDS011;44895;47.438;18.978;2023-02-15T20:27:17;186.68;;;95.78;;
59109;SDS011;44895;47.438;18.978;2023-02-15T20:30:24;168.13;;;93.95;;
59109;SDS011;44895;47.438;18.978;2023-02-15T20:33:33;157.18;;;83.90;;
59109;SDS011;44895;47.438;18.978;2023-02-15T20:36:37;123.47;;;71.18;;
59109;SDS011;44895;47.438;18.978;2023-02-15T20:39:44;107.15;;;57.22;;
59109;SDS011;44895;47.438;18.978;2023-02-15T20:42:49;87.82;;;50.88;;
59109;SDS011;44895;47.438;18.978;2023-02-15T20:45:54;77.57;;;44.67;;
59109;SDS011;44895;47.438;18.978;2023-02-15T20:48:59;70.45;;;42.67;;
59109;SDS011;44895;47.438;18.978;2023-02-15T20:52:04;78.85;;;42.90;;
59109;SDS011;44895;47.438;18.978;2023-02-15T20:55:25;76.57;;;41.03;;
59109;SDS011;44895;47.438;18.978;2023-02-15T20:58:34;63.78;;;40.13;;
59109;SDS011;44895;47.438;18.978;2023-02-15T21:01:41;52.45;;;30.95;;
59109;SDS011;44895;47.438;18.978;2023-02-15T21:04:45;47.25;;;32.10;;